createdAt,value
2017-08-21T00:02:07.859Z,92.20
2017-08-21T00:04:35.314Z,92.50
2017-08-21T00:07:02.779Z,92.50
2017-08-21T00:09:30.259Z,92.60
2017-08-21T00:11:57.750Z,92.60
2017-08-21T00:14:25.301Z,92.70
2017-08-21T00:16:52.782Z,92.60
2017-08-21T00:19:20.238Z,92.60
2017-08-21T00:21:47.729Z,92.80
2017-08-21T00:24:15.171Z,92.80
2017-08-21T00:26:42.639Z,92.80
2017-08-21T00:29:10.107Z,92.90
2017-08-21T00:31:38.338Z,93.00
2017-08-21T00:34:05.795Z,92.90
2017-08-21T00:36:33.276Z,92.90
2017-08-21T00:39:00.736Z,92.90
2017-08-21T00:41:28.194Z,93.00
2017-08-21T00:43:56.446Z,93.40
2017-08-21T00:46:23.918Z,93.20
2017-08-21T00:48:51.429Z,93.10
2017-08-21T00:51:18.892Z,93.20
2017-08-21T00:53:46.351Z,93.20
2017-08-21T00:56:13.823Z,92.90
2017-08-21T00:58:41.278Z,92.90
2017-08-21T01:01:08.739Z,93.00
2017-08-21T01:03:36.231Z,92.90
2017-08-21T01:06:04.461Z,93.20
2017-08-21T01:08:31.927Z,93.20
2017-08-21T01:10:59.387Z,93.30
2017-08-21T01:13:26.867Z,93.20
2017-08-21T01:15:55.103Z,92.80
2017-08-21T01:18:22.558Z,93.00
2017-08-21T01:20:50.047Z,93.30
2017-08-21T01:23:17.506Z,93.50
2017-08-21T01:25:44.971Z,93.70
2017-08-21T01:28:13.195Z,93.40
2017-08-21T01:30:40.666Z,93.40
2017-08-21T01:33:08.122Z,93.50
2017-08-21T01:35:35.601Z,93.80
2017-08-21T01:38:03.074Z,93.80
2017-08-21T01:40:31.315Z,94.10
2017-08-21T01:42:58.779Z,94.10
2017-08-21T01:45:26.245Z,94.20
2017-08-21T01:47:53.716Z,94.20
2017-08-21T01:50:21.951Z,94.10
2017-08-21T01:52:49.434Z,93.80
2017-08-21T01:55:16.883Z,94.00
2017-08-21T01:57:44.339Z,94.20
2017-08-21T02:00:11.809Z,94.40
2017-08-21T02:02:39.283Z,94.40
2017-08-21T02:05:07.536Z,94.50
2017-08-21T02:07:35.007Z,94.50
2017-08-21T02:10:03.250Z,94.10
2017-08-21T02:12:30.703Z,94.10
2017-08-21T02:14:58.159Z,93.90
2017-08-21T02:17:25.627Z,93.80
2017-08-21T02:19:53.086Z,93.70
2017-08-21T02:22:20.571Z,93.70
2017-08-21T02:24:48.791Z,94.00
2017-08-21T02:27:16.258Z,94.00
2017-08-21T02:29:43.718Z,93.70
2017-08-21T02:32:11.191Z,93.60
2017-08-21T02:34:38.654Z,93.60
2017-08-21T02:37:06.977Z,94.60
2017-08-21T02:39:34.422Z,94.70
2017-08-21T02:42:01.888Z,95.00
2017-08-21T02:44:29.368Z,94.90
2017-08-21T02:46:56.817Z,94.60
2017-08-21T02:49:24.302Z,94.70
2017-08-21T02:51:51.758Z,94.80
2017-08-21T02:54:19.215Z,94.90
2017-08-21T02:56:46.684Z,95.00
2017-08-21T02:59:14.904Z,94.40
2017-08-21T03:01:42.380Z,94.30
2017-08-21T03:04:09.831Z,94.40
2017-08-21T03:06:37.311Z,94.70
2017-08-21T03:09:04.770Z,94.60
2017-08-21T03:11:32.236Z,94.70
2017-08-21T03:13:59.706Z,94.80
2017-08-21T03:16:27.930Z,94.90
2017-08-21T03:18:55.387Z,94.90
2017-08-21T03:21:22.863Z,94.90
2017-08-21T03:23:50.326Z,95.10
2017-08-21T03:26:17.798Z,95.30
2017-08-21T03:28:45.263Z,95.40
2017-08-21T03:31:12.723Z,95.70
2017-08-21T03:33:41.023Z,95.10
2017-08-21T03:36:08.478Z,95.10
2017-08-21T03:38:35.955Z,94.80
2017-08-21T03:41:03.415Z,95.10
2017-08-21T03:43:30.890Z,95.40
2017-08-21T03:45:58.371Z,95.70
2017-08-21T03:48:26.609Z,96.20
2017-08-21T03:50:54.053Z,96.20
2017-08-21T03:53:21.539Z,95.90
2017-08-21T03:55:48.994Z,95.50
2017-08-21T03:58:16.471Z,95.10
2017-08-21T04:00:44.692Z,95.00
2017-08-21T04:03:12.147Z,95.00
2017-08-21T04:05:39.618Z,95.10
2017-08-21T04:08:07.097Z,95.10
2017-08-21T04:10:34.555Z,94.90
2017-08-21T04:13:02.024Z,94.90
2017-08-21T04:15:29.490Z,94.80
2017-08-21T04:17:57.711Z,94.90
2017-08-21T04:20:25.190Z,94.80
2017-08-21T04:22:52.653Z,95.10
2017-08-21T04:25:20.118Z,95.20
2017-08-21T04:27:47.586Z,95.20
2017-08-21T04:30:15.827Z,94.90
2017-08-21T04:32:43.308Z,94.90
2017-08-21T04:35:10.755Z,94.80
2017-08-21T04:37:38.234Z,94.70
2017-08-21T04:40:06.447Z,95.00
2017-08-21T04:42:33.905Z,94.70
2017-08-21T04:45:01.378Z,94.90
2017-08-21T04:47:28.871Z,95.10
2017-08-21T04:49:57.091Z,95.00
2017-08-21T04:52:24.567Z,94.90
2017-08-21T04:54:52.018Z,94.90
2017-08-21T04:57:19.474Z,94.80
2017-08-21T04:59:47.014Z,94.70
2017-08-21T05:02:14.469Z,94.60
2017-08-21T05:04:41.930Z,94.60
2017-08-21T05:07:09.410Z,94.50
2017-08-21T05:09:36.867Z,94.40
2017-08-21T05:12:04.339Z,94.50
2017-08-21T05:14:31.799Z,94.50
2017-08-21T05:16:59.419Z,94.40
2017-08-21T05:19:26.895Z,94.20
2017-08-21T05:21:54.360Z,94.40
2017-08-21T05:24:21.838Z,94.40
2017-08-21T05:26:50.064Z,94.20
2017-08-21T05:29:17.613Z,94.20
2017-08-21T05:31:45.075Z,94.10
2017-08-21T05:34:12.534Z,94.00
2017-08-21T05:36:39.999Z,93.80
2017-08-21T05:39:07.475Z,93.70
2017-08-21T05:41:34.931Z,93.30
2017-08-21T05:44:02.409Z,93.30
2017-08-21T05:46:30.643Z,92.80
2017-08-21T05:48:58.112Z,92.80
2017-08-21T05:51:25.587Z,92.50
2017-08-21T05:53:53.059Z,92.30
2017-08-21T05:56:21.308Z,92.00
2017-08-21T05:58:48.766Z,92.00
2017-08-21T06:01:16.235Z,92.40
2017-08-21T06:03:43.707Z,92.10
2017-08-21T06:06:11.931Z,91.40
2017-08-21T06:08:39.406Z,91.40
2017-08-21T06:11:06.876Z,91.20
2017-08-21T06:13:34.351Z,92.10
2017-08-21T06:16:02.590Z,91.70
2017-08-21T06:18:30.051Z,91.70
2017-08-21T06:20:57.534Z,91.90
2017-08-21T06:23:25.762Z,90.90
2017-08-21T06:25:53.218Z,90.90
2017-08-21T06:28:20.698Z,91.20
2017-08-21T06:30:48.158Z,92.00
2017-08-21T06:33:15.618Z,91.20
2017-08-21T06:35:43.112Z,89.80
2017-08-21T06:38:10.563Z,88.50
2017-08-21T06:40:38.040Z,88.90
2017-08-21T06:43:05.511Z,89.90
2017-08-21T06:45:32.963Z,88.90
2017-08-21T06:48:00.427Z,89.40
2017-08-21T06:50:27.899Z,89.00
2017-08-21T06:52:55.371Z,87.90
2017-08-21T06:55:22.831Z,86.70
2017-08-21T06:57:50.292Z,87.20
2017-08-21T07:00:17.758Z,87.30
2017-08-21T07:02:45.992Z,86.70
2017-08-21T07:05:13.465Z,86.60
2017-08-21T07:07:40.945Z,87.30
2017-08-21T07:10:09.166Z,85.00
2017-08-21T07:12:36.638Z,85.00
2017-08-21T07:15:04.107Z,84.50
2017-08-21T07:17:31.582Z,83.70
2017-08-21T07:19:59.819Z,82.80
2017-08-21T07:22:27.294Z,82.70
2017-08-21T07:24:54.750Z,78.20
2017-08-21T07:27:22.223Z,76.80
2017-08-21T07:29:50.473Z,75.00
2017-08-21T07:32:17.931Z,74.80
2017-08-21T07:34:45.406Z,73.50
2017-08-21T07:37:12.871Z,74.70
2017-08-21T07:39:42.022Z,73.40
2017-08-21T07:42:09.484Z,73.40
2017-08-21T07:44:36.963Z,72.20
2017-08-21T07:47:04.439Z,71.90
2017-08-21T07:49:32.694Z,71.50
2017-08-21T07:52:00.162Z,71.50
2017-08-21T07:54:27.634Z,69.10
2017-08-21T07:56:55.099Z,70.60
2017-08-21T07:59:22.584Z,72.70
2017-08-21T08:01:50.040Z,71.50
2017-08-21T08:04:17.524Z,71.30
2017-08-21T08:06:44.986Z,70.00
2017-08-21T08:09:12.442Z,71.50
2017-08-21T08:11:39.911Z,71.90
2017-08-21T08:14:07.375Z,71.00
2017-08-21T08:16:35.597Z,66.60
2017-08-21T08:19:03.077Z,66.50
2017-08-21T08:21:30.539Z,67.20
2017-08-21T08:23:58.018Z,68.10
2017-08-21T08:26:26.243Z,67.40
2017-08-21T08:28:53.794Z,67.40
2017-08-21T08:31:21.256Z,65.30
2017-08-21T08:33:48.710Z,67.10
2017-08-21T08:36:16.194Z,67.10
2017-08-21T08:38:43.659Z,66.60
2017-08-21T08:41:11.178Z,66.30
2017-08-21T08:43:38.643Z,61.30
2017-08-21T08:46:06.110Z,62.40
2017-08-21T08:48:33.587Z,62.50
2017-08-21T08:51:01.051Z,62.20
2017-08-21T08:53:28.544Z,61.70
2017-08-21T08:55:56.000Z,61.10
2017-08-21T08:58:23.458Z,61.70
2017-08-21T09:00:50.930Z,60.30
2017-08-21T09:03:18.387Z,60.10
2017-08-21T09:05:45.847Z,60.10
2017-08-21T09:08:13.331Z,57.80
2017-08-21T09:10:40.783Z,58.00
2017-08-21T09:13:08.244Z,58.50
2017-08-21T09:15:35.718Z,59.80
2017-08-21T09:18:03.175Z,56.70
2017-08-21T09:20:30.646Z,56.50
2017-08-21T09:22:58.866Z,53.50
2017-08-21T09:25:26.338Z,53.50
2017-08-21T09:27:53.811Z,55.00
2017-08-21T09:30:21.265Z,55.60
2017-08-21T09:32:48.731Z,57.20
2017-08-21T09:35:16.207Z,57.00
2017-08-21T09:37:44.423Z,53.00
2017-08-21T09:40:11.908Z,53.00
2017-08-21T09:42:39.355Z,53.10
2017-08-21T09:45:06.820Z,52.60
2017-08-21T09:47:34.286Z,52.00
2017-08-21T09:50:02.556Z,49.90
2017-08-21T09:52:30.012Z,48.10
2017-08-21T09:54:57.471Z,46.20
2017-08-21T09:57:24.951Z,44.60
2017-08-21T09:59:53.175Z,44.50
2017-08-21T10:02:20.635Z,44.40
2017-08-21T10:04:48.108Z,43.80
2017-08-21T10:07:15.574Z,42.20
2017-08-21T10:09:43.034Z,45.80
2017-08-21T10:12:11.270Z,43.20
2017-08-21T10:14:38.772Z,42.70
2017-08-21T10:17:06.990Z,43.30
2017-08-21T10:19:34.444Z,43.20
2017-08-21T10:22:01.925Z,42.00
2017-08-21T10:24:29.461Z,40.60
2017-08-21T10:26:56.908Z,42.40
2017-08-21T10:29:24.363Z,39.90
2017-08-21T10:31:51.839Z,39.60
2017-08-21T10:34:19.303Z,38.50
2017-08-21T10:36:46.758Z,38.60
2017-08-21T10:39:14.245Z,41.60
2017-08-21T10:41:41.715Z,46.20
2017-08-21T10:44:09.931Z,47.90
2017-08-21T10:46:37.407Z,47.90
2017-08-21T10:49:04.873Z,46.80
2017-08-21T10:51:32.333Z,45.10
2017-08-21T10:53:59.797Z,44.10
2017-08-21T10:56:27.246Z,40.90
2017-08-21T10:58:54.724Z,38.90
2017-08-21T11:01:22.962Z,39.00
2017-08-21T11:03:50.428Z,38.60
2017-08-21T11:06:17.891Z,39.10
2017-08-21T11:08:45.372Z,38.80
2017-08-21T11:11:13.610Z,40.80
2017-08-21T11:13:41.087Z,40.80
2017-08-21T11:16:08.597Z,39.20
2017-08-21T11:18:36.155Z,38.20
2017-08-21T11:21:03.620Z,41.90
2017-08-21T11:23:31.078Z,42.70
2017-08-21T11:25:58.554Z,40.30
2017-08-21T11:28:26.019Z,39.20
2017-08-21T11:30:53.479Z,38.30
2017-08-21T11:33:20.946Z,36.20
2017-08-21T11:35:48.422Z,35.50
2017-08-21T11:38:15.878Z,35.40
2017-08-21T11:40:43.341Z,38.20
2017-08-21T11:43:10.815Z,38.40
2017-08-21T11:45:38.278Z,36.40
2017-08-21T11:48:05.746Z,36.40
2017-08-21T11:50:33.212Z,36.20
2017-08-21T11:53:00.679Z,36.80
2017-08-21T11:55:28.155Z,39.30
2017-08-21T11:57:55.606Z,39.90
2017-08-21T12:00:23.081Z,42.00
2017-08-21T12:02:51.390Z,38.80
2017-08-21T12:05:18.950Z,38.80
2017-08-21T12:07:46.407Z,37.60
2017-08-21T12:10:13.870Z,36.40
2017-08-21T12:12:41.363Z,38.90
2017-08-21T12:15:08.813Z,43.90
2017-08-21T12:17:36.283Z,44.80
2017-08-21T12:20:03.738Z,40.40
2017-08-21T12:22:31.975Z,42.80
2017-08-21T12:24:59.446Z,42.90
2017-08-21T12:27:26.912Z,43.40
2017-08-21T12:29:54.388Z,42.10
2017-08-21T12:32:21.847Z,42.70
2017-08-21T12:34:50.081Z,40.20
2017-08-21T12:37:17.559Z,40.20
2017-08-21T12:39:45.981Z,40.80
2017-08-21T12:42:13.492Z,39.30
2017-08-21T12:44:40.963Z,40.10
2017-08-21T12:47:08.416Z,40.60
2017-08-21T12:49:35.891Z,41.00
2017-08-21T12:52:04.128Z,40.90
2017-08-21T12:54:31.579Z,40.90
2017-08-21T12:56:59.052Z,43.20
2017-08-21T12:59:26.499Z,43.20
2017-08-21T13:01:53.955Z,43.90
2017-08-21T13:04:21.423Z,46.00
2017-08-21T13:06:48.895Z,45.80
2017-08-21T13:09:17.115Z,43.70
2017-08-21T13:11:44.582Z,43.70
2017-08-21T13:14:12.066Z,43.10
2017-08-21T13:16:39.549Z,43.70
2017-08-21T13:19:07.771Z,41.30
2017-08-21T13:21:35.255Z,41.30
2017-08-21T13:24:02.714Z,41.60
2017-08-21T13:26:30.194Z,40.50
2017-08-21T13:28:58.414Z,42.70
2017-08-21T13:31:25.964Z,42.60
2017-08-21T13:33:53.434Z,43.60
2017-08-21T13:36:20.888Z,41.70
2017-08-21T13:38:48.338Z,42.30
2017-08-21T13:41:15.819Z,45.30
2017-08-21T13:43:43.287Z,43.90
2017-08-21T13:46:10.743Z,42.50
2017-08-21T13:48:38.207Z,40.30
2017-08-21T13:51:06.444Z,43.20
2017-08-21T13:53:33.899Z,43.20
2017-08-21T13:56:01.371Z,43.00
2017-08-21T13:58:28.830Z,43.80
2017-08-21T14:00:56.298Z,43.60
2017-08-21T14:03:23.762Z,42.80
2017-08-21T14:05:52.007Z,43.40
2017-08-21T14:08:19.472Z,43.40
2017-08-21T14:10:46.939Z,40.90
2017-08-21T14:13:14.410Z,41.20
2017-08-21T14:15:42.643Z,42.20
2017-08-21T14:18:10.111Z,41.50
2017-08-21T14:20:37.570Z,41.40
2017-08-21T14:23:05.024Z,43.20
2017-08-21T14:25:32.499Z,42.20
2017-08-21T14:27:59.954Z,42.10
2017-08-21T14:30:27.423Z,41.30
2017-08-21T14:32:55.654Z,41.70
2017-08-21T14:35:23.111Z,41.10
2017-08-21T14:37:50.591Z,42.00
2017-08-21T14:40:18.039Z,43.00
2017-08-21T14:42:45.519Z,41.70
2017-08-21T14:45:12.992Z,41.30
2017-08-21T14:47:41.226Z,42.10
2017-08-21T14:50:08.687Z,42.10
2017-08-21T14:52:36.167Z,44.40
2017-08-21T14:55:03.657Z,45.60
2017-08-21T14:57:31.107Z,44.90
2017-08-21T14:59:58.580Z,44.10
2017-08-21T15:02:26.044Z,45.90
2017-08-21T15:04:53.512Z,46.90
2017-08-21T15:07:20.994Z,43.60
2017-08-21T15:09:48.454Z,43.80
2017-08-21T15:12:15.922Z,44.70
2017-08-21T15:14:44.170Z,45.20
2017-08-21T15:17:12.495Z,45.20
2017-08-21T15:19:39.951Z,43.90
2017-08-21T15:22:07.445Z,43.80
2017-08-21T15:24:34.983Z,43.20
2017-08-21T15:27:02.451Z,42.70
2017-08-21T15:29:29.928Z,43.70
2017-08-21T15:31:57.455Z,43.50
2017-08-21T15:34:24.915Z,43.70
2017-08-21T15:36:52.376Z,44.30
2017-08-21T15:39:19.847Z,43.30
2017-08-21T15:41:47.304Z,43.00
2017-08-21T15:44:14.780Z,44.60
2017-08-21T15:46:42.238Z,44.60
2017-08-21T15:49:09.711Z,45.00
2017-08-21T15:51:37.178Z,45.50
2017-08-21T15:54:05.407Z,44.80
2017-08-21T15:56:32.867Z,44.80
2017-08-21T15:59:00.367Z,44.80
2017-08-21T16:01:27.835Z,44.80
2017-08-21T16:03:55.288Z,44.10
2017-08-21T16:06:22.766Z,44.00
2017-08-21T16:08:50.258Z,45.10
2017-08-21T16:11:17.723Z,45.30
2017-08-21T16:13:45.199Z,44.80
2017-08-21T16:16:13.423Z,44.70
2017-08-21T16:18:40.913Z,44.70
2017-08-21T16:21:08.383Z,44.10
2017-08-21T16:23:36.622Z,45.40
2017-08-21T16:26:04.103Z,45.20
2017-08-21T16:28:31.563Z,44.70
2017-08-21T16:30:59.788Z,45.20
2017-08-21T16:33:54.904Z,45.30
2017-08-21T16:36:22.358Z,46.70
2017-08-21T16:38:49.825Z,46.10
2017-08-21T16:41:17.298Z,46.40
2017-08-21T16:43:44.787Z,46.50
2017-08-21T16:46:12.251Z,45.70
2017-08-21T16:48:39.725Z,45.80
2017-08-21T16:51:07.195Z,45.80
2017-08-21T16:53:34.675Z,46.40
2017-08-21T16:56:02.143Z,46.20
2017-08-21T16:58:29.615Z,46.00
2017-08-21T17:00:57.083Z,46.50
2017-08-21T17:03:24.566Z,48.00
2017-08-21T17:05:52.017Z,47.60
2017-08-21T17:08:19.515Z,47.10
2017-08-21T17:10:46.965Z,47.40
2017-08-21T17:13:14.414Z,47.10
2017-08-21T17:15:41.904Z,47.00
2017-08-21T17:18:09.356Z,48.00
2017-08-21T17:20:36.835Z,47.80
2017-08-21T17:23:04.317Z,48.60
2017-08-21T17:25:31.775Z,48.60
2017-08-21T17:27:59.247Z,48.40
2017-08-21T17:30:26.716Z,49.00
2017-08-21T17:32:54.183Z,47.90
2017-08-21T17:35:21.663Z,48.10
2017-08-21T17:37:49.121Z,48.80
2017-08-21T17:40:16.582Z,50.00
2017-08-21T17:42:44.072Z,49.90
2017-08-21T17:45:11.515Z,50.90
2017-08-21T17:47:38.999Z,52.00
2017-08-21T17:50:06.468Z,52.30
2017-08-21T17:52:33.922Z,53.10
2017-08-21T17:55:01.407Z,52.60
2017-08-21T17:57:28.887Z,52.40
2017-08-21T17:59:56.368Z,54.00
2017-08-21T18:02:23.843Z,53.30
2017-08-21T18:04:51.306Z,54.00
2017-08-21T18:07:18.768Z,53.60
2017-08-21T18:09:46.231Z,53.50
2017-08-21T18:12:13.698Z,53.80
2017-08-21T18:14:41.210Z,54.10
2017-08-21T18:17:08.679Z,53.50
2017-08-21T18:19:36.137Z,54.90
2017-08-21T18:22:03.616Z,57.70
2017-08-21T18:24:31.111Z,61.70
2017-08-21T18:26:58.584Z,61.90
2017-08-21T18:29:26.052Z,62.40
2017-08-21T18:31:53.523Z,63.20
2017-08-21T18:34:20.988Z,64.20
2017-08-21T18:36:48.466Z,65.40
2017-08-21T18:39:15.928Z,66.40
2017-08-21T18:41:43.399Z,66.80
2017-08-21T18:44:10.855Z,68.70
2017-08-21T18:46:38.312Z,70.70
2017-08-21T18:49:05.800Z,71.40
2017-08-21T18:51:33.252Z,71.00
2017-08-21T18:54:00.743Z,67.50
2017-08-21T18:56:28.677Z,69.80
2017-08-21T18:58:56.152Z,70.10
2017-08-21T19:01:23.628Z,69.90
2017-08-21T19:03:51.086Z,71.30
2017-08-21T19:06:18.559Z,73.50
2017-08-21T19:08:46.068Z,69.20
2017-08-21T19:11:13.518Z,70.70
2017-08-21T19:13:40.988Z,72.50
2017-08-21T19:16:08.467Z,74.10
2017-08-21T19:18:35.925Z,74.50
2017-08-21T19:21:03.411Z,77.20
2017-08-21T19:23:30.894Z,76.10
2017-08-21T19:25:58.383Z,75.20
2017-08-21T19:28:25.842Z,73.60
2017-08-21T19:30:53.307Z,73.20
2017-08-21T19:33:20.928Z,75.20
2017-08-21T19:35:48.382Z,78.50
2017-08-21T19:38:15.840Z,78.70
2017-08-21T19:40:43.330Z,77.20
2017-08-21T19:43:10.806Z,78.30
2017-08-21T19:45:38.268Z,77.10
2017-08-21T19:48:05.727Z,77.30
2017-08-21T19:50:33.263Z,77.40
2017-08-21T19:53:00.731Z,78.30
2017-08-21T19:55:28.195Z,78.40
2017-08-21T19:57:55.741Z,78.00
2017-08-21T20:00:23.224Z,78.90
2017-08-21T20:02:50.813Z,80.20
2017-08-21T20:05:18.284Z,82.20
2017-08-21T20:07:45.747Z,84.00
2017-08-21T20:10:13.242Z,85.40
2017-08-21T20:12:40.727Z,84.20
2017-08-21T20:15:08.186Z,84.10
2017-08-21T20:17:35.659Z,83.20
2017-08-21T20:20:03.135Z,83.10
2017-08-21T20:22:30.591Z,84.20
2017-08-21T20:24:58.071Z,81.70
2017-08-21T20:27:25.926Z,82.00
2017-08-21T20:29:53.396Z,84.30
2017-08-21T20:32:20.864Z,84.50
2017-08-21T20:34:48.336Z,83.10
2017-08-21T20:37:15.797Z,81.10
2017-08-21T20:39:43.270Z,80.60
2017-08-21T20:42:10.737Z,84.60
2017-08-21T20:44:38.188Z,84.40
2017-08-21T20:47:05.658Z,86.00
2017-08-21T20:49:33.118Z,85.80
2017-08-21T20:52:00.600Z,86.20
2017-08-21T20:54:28.081Z,85.80
2017-08-21T20:56:55.555Z,85.80
2017-08-21T20:59:23.011Z,85.20
2017-08-21T21:01:50.495Z,84.60
2017-08-21T21:04:17.980Z,84.00
2017-08-21T21:06:45.462Z,83.80
2017-08-21T21:09:12.927Z,83.90
2017-08-21T21:11:40.518Z,83.40
2017-08-21T21:14:07.991Z,83.40
2017-08-21T21:16:35.479Z,84.70
2017-08-21T21:19:02.936Z,84.40
2017-08-21T21:21:30.395Z,84.90
2017-08-21T21:23:57.885Z,82.70
2017-08-21T21:26:25.376Z,84.90
2017-08-21T21:28:52.862Z,82.60
2017-08-21T21:31:20.334Z,83.20
2017-08-21T21:33:47.867Z,85.30
2017-08-21T21:36:15.326Z,85.10
2017-08-21T21:38:42.785Z,84.70
2017-08-21T21:41:10.263Z,83.20
2017-08-21T21:43:37.715Z,85.10
2017-08-21T21:46:05.188Z,85.20
2017-08-21T21:48:32.647Z,84.80
2017-08-21T21:51:00.138Z,84.80
2017-08-21T21:53:27.610Z,85.80
2017-08-21T21:55:55.075Z,85.70
2017-08-21T21:58:22.559Z,86.30
2017-08-21T22:00:50.024Z,88.40
2017-08-21T22:03:17.478Z,87.50
2017-08-21T22:05:44.995Z,88.10
2017-08-21T22:08:12.486Z,88.90
2017-08-21T22:10:39.978Z,87.90
2017-08-21T22:13:07.434Z,87.50
2017-08-21T22:15:34.914Z,87.40
2017-08-21T22:18:02.374Z,89.20
2017-08-21T22:20:29.826Z,89.70
2017-08-21T22:22:57.319Z,90.00
2017-08-21T22:25:24.774Z,90.30
2017-08-21T22:27:52.270Z,90.00
2017-08-21T22:30:19.727Z,89.90
2017-08-21T22:32:47.212Z,90.00
2017-08-21T22:35:14.679Z,90.00
2017-08-21T22:37:42.155Z,89.90
2017-08-21T22:40:09.649Z,89.30
2017-08-21T22:42:37.820Z,90.00
2017-08-21T22:45:05.283Z,90.10
2017-08-21T22:47:32.741Z,89.70
2017-08-21T22:50:00.227Z,90.10
2017-08-21T22:52:27.699Z,90.30
2017-08-21T22:54:55.170Z,90.60
2017-08-21T22:57:22.638Z,90.80
2017-08-21T22:59:50.102Z,91.10
2017-08-21T23:02:17.572Z,90.90
2017-08-21T23:04:45.054Z,91.00
2017-08-21T23:07:12.523Z,91.30
2017-08-21T23:09:39.984Z,91.30
2017-08-21T23:12:07.447Z,90.90
2017-08-21T23:14:34.930Z,90.50
2017-08-21T23:17:02.419Z,90.90
2017-08-21T23:19:29.876Z,90.90
2017-08-21T23:21:57.358Z,91.00
2017-08-21T23:24:24.809Z,91.30
2017-08-21T23:26:52.270Z,91.30
2017-08-21T23:29:19.739Z,91.30
2017-08-21T23:31:47.198Z,91.80
2017-08-21T23:34:14.683Z,92.00
2017-08-21T23:36:42.150Z,92.40
2017-08-21T23:39:09.622Z,92.50
2017-08-21T23:41:37.092Z,92.40
2017-08-21T23:44:04.576Z,92.10
2017-08-21T23:46:32.058Z,91.80
2017-08-21T23:48:59.510Z,91.60
2017-08-21T23:51:26.973Z,92.00
2017-08-21T23:53:54.439Z,92.50
2017-08-21T23:56:21.944Z,92.50
2017-08-21T23:58:49.428Z,92.40
